Time;durP1;ratioP1;P1;durP2;ratioP2;P2;SDS_P1;SDS_P2;PMS_P1;PMS_P2;Temp;Humidity;BMP_temperature;BMP_pressure;BME280_temperature;BME280_humidity;BME280_pressure;Samples;Min_cycle;Max_cycle;Signal;HPM_P1;HPM_P2
2021/01/10 00:00:14;;;;;;;8.52;6.00;;;1.40;99.90;;;;;;5013903;28;20054;-82
2021/01/10 00:02:41;;;;;;;9.73;5.68;;;1.40;99.90;;;;;;5012199;28;20057;-82
2021/01/10 00:05:09;;;;;;;8.30;5.90;;;1.40;99.90;;;;;;5028828;28;20046;-83
2021/01/10 00:07:35;;;;;;;8.40;5.87;;;1.40;99.90;;;;;;5012175;28;20038;-82
2021/01/10 00:10:06;;;;;;;7.30;5.75;;;1.40;99.90;;;;;;5012927;28;20312;-82
2021/01/10 00:12:32;;;;;;;9.50;6.10;;;1.30;99.90;;;;;;5031984;28;20364;-82
2021/01/10 00:15:00;;;;;;;8.23;5.97;;;1.30;99.90;;;;;;5014164;28;20373;-85
2021/01/10 00:17:27;;;;;;;8.77;5.57;;;1.30;99.90;;;;;;5011771;28;20054;-83
2021/01/10 00:19:53;;;;;;;10.52;6.53;;;1.30;99.90;;;;;;5033758;28;20057;-82
2021/01/10 00:22:22;;;;;;;7.85;6.25;;;1.30;99.90;;;;;;5017820;28;20065;-82
2021/01/10 00:24:48;;;;;;;9.07;5.68;;;1.30;99.90;;;;;;5002333;28;20049;-82
2021/01/10 00:27:18;;;;;;;9.25;6.38;;;1.30;99.90;;;;;;5035744;28;20455;-82
2021/01/10 00:29:48;;;;;;;8.45;5.75;;;1.30;99.90;;;;;;5004768;28;20059;-82
2021/01/10 00:32:15;;;;;;;10.15;6.35;;;1.30;99.90;;;;;;5006083;28;20058;-82
2021/01/10 00:34:42;;;;;;;8.15;5.78;;;1.20;99.90;;;;;;5038010;28;20396;-83
2021/01/10 00:37:14;;;;;;;8.35;6.10;;;1.20;99.90;;;;;;5020118;28;20048;-82
2021/01/10 00:39:45;;;;;;;8.98;5.63;;;1.20;99.90;;;;;;5002137;28;20124;-82
2021/01/10 00:42:15;;;;;;;8.20;5.63;;;1.20;99.90;;;;;;5033893;28;20442;-83
2021/01/10 00:44:48;;;;;;;10.20;6.00;;;1.20;99.90;;;;;;5016625;28;20123;-83
2021/01/10 00:47:19;;;;;;;8.35;5.40;;;1.20;99.90;;;;;;5044420;28;20056;-82
2021/01/10 00:49:46;;;;;;;9.13;5.63;;;1.30;99.90;;;;;;5005930;28;20042;-83
2021/01/10 00:52:13;;;;;;;8.93;6.22;;;1.20;99.90;;;;;;5036911;28;20430;-82
2021/01/10 00:54:39;;;;;;;7.20;5.78;;;1.20;99.90;;;;;;5030943;28;20430;-82
2021/01/10 00:57:06;;;;;;;6.93;5.45;;;1.20;99.90;;;;;;5057129;28;20482;-83
2021/01/10 00:59:33;;;;;;;9.05;5.90;;;1.20;99.90;;;;;;5062715;28;20050;-82
2021/01/10 01:01:59;;;;;;;12.73;5.80;;;1.20;99.90;;;;;;5067011;28;20052;-82
2021/01/10 01:04:26;;;;;;;7.28;5.45;;;1.20;99.90;;;;;;5034160;28;22402;-82
2021/01/10 01:06:52;;;;;;;10.00;6.15;;;1.10;99.90;;;;;;5026920;28;20053;-82
2021/01/10 01:09:19;;;;;;;8.05;5.28;;;1.10;99.90;;;;;;5049553;28;20045;-82
2021/01/10 01:11:45;;;;;;;8.07;5.35;;;1.10;99.90;;;;;;5051000;28;20060;-83
2021/01/10 01:14:12;;;;;;;6.78;5.30;;;1.10;99.90;;;;;;5051680;28;20053;-83
2021/01/10 01:16:40;;;;;;;12.55;5.25;;;1.00;99.90;;;;;;5031770;28;20053;-82
2021/01/10 01:19:08;;;;;;;7.47;4.75;;;1.00;99.90;;;;;;5031201;28;20073;-82
2021/01/10 01:21:35;;;;;;;6.85;4.75;;;1.00;99.90;;;;;;5070968;28;20063;-82
2021/01/10 01:24:03;;;;;;;8.65;5.10;;;1.10;99.90;;;;;;5035971;28;20091;-82
2021/01/10 01:26:29;;;;;;;7.25;4.80;;;1.10;99.90;;;;;;5069320;28;20135;-82
2021/01/10 01:28:56;;;;;;;7.03;4.93;;;1.00;99.90;;;;;;5053491;28;20045;-82
2021/01/10 01:31:25;;;;;;;8.20;5.32;;;1.00;99.90;;;;;;5035008;28;20060;-82
2021/01/10 01:33:54;;;;;;;8.85;4.68;;;1.00;99.90;;;;;;5023958;28;20057;-82
2021/01/10 01:36:24;;;;;;;6.68;5.07;;;1.00;99.90;;;;;;5024108;28;20053;-82
2021/01/10 01:38:52;;;;;;;6.75;4.70;;;1.00;99.90;;;;;;5024521;28;20084;-83
2021/01/10 01:41:19;;;;;;;9.20;4.93;;;1.00;99.90;;;;;;5024883;28;20042;-82
2021/01/10 01:43:46;;;;;;;6.15;4.68;;;1.00;99.90;;;;;;5026117;28;20548;-82
2021/01/10 01:46:27;;;;;;;9.52;4.80;;;1.00;99.90;;;;;;5023246;28;20048;-82
2021/01/10 01:48:57;;;;;;;6.57;4.78;;;1.00;99.90;;;;;;5026451;28;20045;-82
2021/01/10 01:51:25;;;;;;;9.68;4.78;;;1.00;99.90;;;;;;5029312;28;20483;-82
2021/01/10 01:53:52;;;;;;;8.48;4.53;;;1.00;99.90;;;;;;5022017;28;20057;-82
2021/01/10 01:56:18;;;;;;;8.07;5.43;;;1.00;99.90;;;;;;5025252;28;20049;-82
2021/01/10 01:59:02;;;;;;;10.13;4.90;;;1.00;99.90;;;;;;5067859;28;20446;-82
2021/01/10 02:01:31;;;;;;;7.20;4.93;;;1.00;99.90;;;;;;5048801;28;20044;-82
2021/01/10 02:04:20;;;;;;;8.60;5.03;;;0.90;99.90;;;;;;5068659;28;20554;-82
2021/01/10 02:07:10;;;;;;;8.02;5.28;;;0.90;99.90;;;;;;5036340;28;20053;-82
2021/01/10 02:09:53;;;;;;;7.07;5.00;;;0.90;99.90;;;;;;5040368;28;20049;-82
2021/01/10 02:12:22;;;;;;;7.85;4.78;;;0.90;99.90;;;;;;5048808;28;20136;-82
2021/01/10 02:14:54;;;;;;;7.25;5.07;;;0.90;99.90;;;;;;5034438;28;20056;-82
2021/01/10 02:17:21;;;;;;;7.25;5.45;;;0.90;99.90;;;;;;5051357;28;20086;-82
2021/01/10 02:19:57;;;;;;;7.57;5.30;;;0.80;99.90;;;;;;5034107;28;20079;-82
2021/01/10 02:22:27;;;;;;;8.82;5.30;;;0.80;99.90;;;;;;5034564;28;20552;-82
2021/01/10 02:24:54;;;;;;;8.13;4.82;;;0.80;99.90;;;;;;5036239;28;20106;-82
2021/01/10 02:27:21;;;;;;;9.50;5.47;;;0.80;99.90;;;;;;5038283;28;20049;-82
2021/01/10 02:29:49;;;;;;;6.30;4.68;;;0.80;99.90;;;;;;5023889;28;20057;-82
2021/01/10 02:32:18;;;;;;;7.47;5.32;;;0.80;99.90;;;;;;5027313;28;20120;-82
2021/01/10 02:34:45;;;;;;;;;;;0.80;99.90;;;;;;5043568;28;20069;-82
2021/01/10 02:37:27;;;;;;;7.97;4.70;;;0.80;99.90;;;;;;5022316;28;20333;-82
2021/01/10 02:40:05;;;;;;;10.10;5.15;;;0.80;99.90;;;;;;5058419;28;20049;-82
2021/01/10 02:42:47;;;;;;;10.05;6.38;;;0.80;99.90;;;;;;5061108;28;20471;-82
2021/01/10 02:45:25;;;;;;;6.55;4.80;;;0.80;99.90;;;;;;5030167;28;20655;-82
2021/01/10 02:47:52;;;;;;;9.20;5.70;;;0.80;99.90;;;;;;5024028;28;20051;-83
2021/01/10 02:50:18;;;;;;;7.18;4.95;;;0.80;99.90;;;;;;5026448;28;20064;-82
2021/01/10 02:52:47;;;;;;;9.23;5.38;;;0.80;99.90;;;;;;5047198;28;20045;-82
2021/01/10 02:55:15;;;;;;;7.57;4.88;;;0.80;99.90;;;;;;5022951;28;20060;-82
2021/01/10 02:57:55;;;;;;;9.82;6.00;;;0.80;99.90;;;;;;5015814;28;20045;-83
2021/01/10 03:00:24;;;;;;;8.00;4.88;;;0.70;99.90;;;;;;5018740;28;20052;-82
2021/01/10 03:02:53;;;;;;;6.07;4.78;;;0.70;99.90;;;;;;5034539;28;20426;-83
2021/01/10 03:05:20;;;;;;;9.73;4.75;;;0.70;99.90;;;;;;5013733;28;20057;-82
2021/01/10 03:07:47;;;;;;;9.38;5.60;;;0.70;99.90;;;;;;5032220;28;20053;-83
2021/01/10 03:10:14;;;;;;;7.47;4.57;;;0.70;99.90;;;;;;5013890;28;20053;-82
2021/01/10 03:12:41;;;;;;;9.48;5.90;;;0.70;99.90;;;;;;5015456;28;20061;-83
2021/01/10 03:15:09;;;;;;;10.63;6.03;;;0.60;99.90;;;;;;5004089;28;20057;-82
2021/01/10 03:17:44;;;;;;;7.47;5.03;;;0.60;99.90;;;;;;5003157;28;20060;-83
2021/01/10 03:20:13;;;;;;;9.13;5.10;;;0.70;99.90;;;;;;5003887;28;20046;-82
2021/01/10 03:22:40;;;;;;;9.15;5.05;;;0.60;99.90;;;;;;5004644;28;20053;-82
2021/01/10 03:25:08;;;;;;;11.80;5.57;;;0.60;99.90;;;;;;5018000;28;20049;-82
2021/01/10 03:27:37;;;;;;;10.10;5.63;;;0.60;99.90;;;;;;5031702;28;20056;-82
2021/01/10 03:30:09;;;;;;;8.48;5.28;;;0.60;99.90;;;;;;5022864;28;20068;-82
2021/01/10 03:32:56;;;;;;;10.32;5.22;;;0.60;99.90;;;;;;5020938;28;20044;-82
2021/01/10 03:35:23;;;;;;;10.70;5.60;;;0.60;99.90;;;;;;5041672;28;20053;-82
2021/01/10 03:37:49;;;;;;;8.43;5.20;;;0.60;99.90;;;;;;5012381;28;20049;-82
2021/01/10 03:40:17;;;;;;;9.43;5.20;;;0.60;99.90;;;;;;5011741;28;20115;-82
2021/01/10 03:42:43;;;;;;;8.85;5.25;;;0.60;99.90;;;;;;5014313;28;20076;-82
2021/01/10 03:45:11;;;;;;;7.68;5.13;;;0.60;99.90;;;;;;5032703;28;20046;-83
2021/01/10 03:47:38;;;;;;;10.02;5.65;;;0.60;99.90;;;;;;5014263;28;20110;-82
2021/01/10 03:50:06;;;;;;;11.68;5.35;;;0.60;99.90;;;;;;5031538;28;20050;-82
2021/01/10 03:52:32;;;;;;;11.27;6.10;;;0.60;99.90;;;;;;5007674;28;20085;-83
2021/01/10 03:54:59;;;;;;;11.02;5.53;;;0.60;99.90;;;;;;5028989;28;20053;-82
2021/01/10 03:57:25;;;;;;;8.80;5.47;;;0.60;99.90;;;;;;5056384;28;20053;-82
2021/01/10 03:59:52;;;;;;;9.75;5.18;;;0.60;99.90;;;;;;5055539;28;20053;-82
2021/01/10 04:02:18;;;;;;;9.85;5.65;;;0.70;99.90;;;;;;5036325;28;20037;-83
2021/01/10 04:04:45;;;;;;;10.48;5.43;;;0.70;99.90;;;;;;5037262;28;20471;-82
2021/01/10 04:07:12;;;;;;;11.15;5.80;;;0.70;99.90;;;;;;5022663;28;20056;-82
2021/01/10 04:09:38;;;;;;;9.57;5.72;;;0.70;99.90;;;;;;5023718;28;20538;-82
2021/01/10 04:12:05;;;;;;;10.00;4.75;;;0.70;99.90;;;;;;5059376;28;20064;-82
2021/01/10 04:14:31;;;;;;;12.35;6.43;;;0.70;99.90;;;;;;5052597;28;20045;-82
2021/01/10 04:16:58;;;;;;;9.35;5.85;;;0.70;99.90;;;;;;5034990;28;20082;-82
2021/01/10 04:19:25;;;;;;;9.35;5.07;;;0.70;99.90;;;;;;5021730;28;20432;-82
2021/01/10 04:21:51;;;;;;;13.63;5.07;;;0.70;99.90;;;;;;5059223;28;20099;-83
2021/01/10 04:24:18;;;;;;;8.25;4.93;;;0.70;99.90;;;;;;5031116;28;20604;-82
2021/01/10 04:26:49;;;;;;;10.15;4.82;;;0.70;99.90;;;;;;5050335;28;20567;-82
2021/01/10 04:29:19;;;;;;;9.23;4.97;;;0.70;99.90;;;;;;5026671;28;20042;-82
2021/01/10 04:31:50;;;;;;;8.50;4.68;;;0.70;99.90;;;;;;5070540;28;20475;-82
2021/01/10 04:34:17;;;;;;;8.88;4.28;;;0.70;99.90;;;;;;5055275;28;20061;-82
2021/01/10 04:36:44;;;;;;;8.07;4.53;;;0.70;99.90;;;;;;5054784;28;20219;-82
2021/01/10 04:39:14;;;;;;;9.55;4.20;;;0.70;99.90;;;;;;5037576;28;20496;-82
2021/01/10 04:41:42;;;;;;;8.75;4.40;;;0.70;99.90;;;;;;5057395;28;20470;-82
2021/01/10 04:44:09;;;;;;;10.83;5.17;;;0.70;99.90;;;;;;5036981;28;20057;-82
2021/01/10 04:46:38;;;;;;;9.45;4.38;;;0.70;99.90;;;;;;5055488;28;20478;-82
2021/01/10 04:49:05;;;;;;;8.88;5.03;;;0.80;99.90;;;;;;5036975;28;20148;-82
2021/01/10 04:51:36;;;;;;;9.23;4.72;;;0.80;99.90;;;;;;5038036;28;20111;-82
2021/01/10 04:54:03;;;;;;;7.65;4.70;;;0.80;99.90;;;;;;5034693;28;20107;-82
2021/01/10 04:56:30;;;;;;;9.23;4.65;;;0.70;99.90;;;;;;5030325;28;20107;-82
2021/01/10 04:59:01;;;;;;;14.90;4.22;;;0.70;99.90;;;;;;5024613;28;20056;-82
2021/01/10 05:01:50;;;;;;;7.93;4.45;;;0.70;99.90;;;;;;5028367;28;20098;-82
2021/01/10 05:04:17;;;;;;;8.20;3.72;;;0.70;99.90;;;;;;5024236;28;20475;-84
2021/01/10 05:06:46;;;;;;;6.60;3.80;;;0.70;99.90;;;;;;5022380;28;20442;-83
2021/01/10 05:09:13;;;;;;;12.87;4.13;;;0.70;99.90;;;;;;5026006;28;20080;-83
2021/01/10 05:11:39;;;;;;;8.02;4.28;;;0.80;99.90;;;;;;5024335;28;20623;-83
2021/01/10 05:14:06;;;;;;;8.85;3.97;;;0.70;99.90;;;;;;5022898;28;20140;-84
2021/01/10 05:16:34;;;;;;;10.25;3.90;;;0.70;99.90;;;;;;5026337;28;20083;-84
2021/01/10 05:19:03;;;;;;;7.03;3.92;;;0.70;99.90;;;;;;5031559;28;20128;-84
2021/01/10 05:21:29;;;;;;;6.25;3.55;;;0.70;99.90;;;;;;5035447;28;20057;-83
2021/01/10 05:23:58;;;;;;;8.57;3.97;;;0.80;99.90;;;;;;5028546;28;20045;-84
2021/01/10 05:26:35;;;;;;;8.13;3.80;;;0.70;99.90;;;;;;5036139;28;20048;-83
2021/01/10 05:29:08;;;;;;;9.07;3.83;;;0.80;99.90;;;;;;5061293;28;20106;-84
2021/01/10 05:31:43;;;;;;;7.38;3.97;;;0.80;99.90;;;;;;5029919;28;20060;-83
2021/01/10 05:34:17;;;;;;;7.07;3.80;;;0.80;99.90;;;;;;5036064;28;20053;-84
2021/01/10 05:36:43;;;;;;;7.78;3.47;;;0.80;99.90;;;;;;5036415;28;20048;-84
2021/01/10 05:39:19;;;;;;;8.18;3.92;;;0.90;99.90;;;;;;5033961;28;20048;-84
2021/01/10 05:41:58;;;;;;;9.10;3.80;;;0.90;99.90;;;;;;5068494;28;20064;-84
2021/01/10 05:44:39;;;;;;;8.68;4.32;;;0.90;99.90;;;;;;5030036;28;20061;-83
2021/01/10 05:47:08;;;;;;;10.20;3.63;;;0.90;99.90;;;;;;5046661;28;20045;-83
2021/01/10 05:49:43;;;;;;;6.30;3.60;;;0.90;99.90;;;;;;5036334;28;20061;-83
2021/01/10 05:52:11;;;;;;;7.60;3.53;;;0.90;99.90;;;;;;5039082;28;20106;-83
2021/01/10 05:54:45;;;;;;;7.90;3.90;;;0.90;99.90;;;;;;5025139;28;20057;-83
2021/01/10 05:57:16;;;;;;;6.53;3.35;;;0.90;99.90;;;;;;5056885;28;20061;-83
2021/01/10 05:59:47;;;;;;;10.07;3.60;;;0.90;99.90;;;;;;5040897;28;20041;-83
2021/01/10 06:02:26;;;;;;;6.95;3.28;;;0.90;99.90;;;;;;5021615;28;20431;-84
2021/01/10 06:05:16;;;;;;;10.18;4.18;;;0.80;99.90;;;;;;5024169;28;20430;-83
2021/01/10 06:07:44;;;;;;;6.00;3.38;;;0.80;99.90;;;;;;5052336;28;20426;-83
2021/01/10 06:10:11;;;;;;;11.48;4.10;;;0.80;99.90;;;;;;5031708;28;20049;-84
2021/01/10 06:12:41;;;;;;;11.60;3.95;;;0.80;99.90;;;;;;5053955;28;20049;-83
2021/01/10 06:15:17;;;;;;;5.32;3.53;;;0.90;99.90;;;;;;5035727;28;20064;-84
2021/01/10 06:17:50;;;;;;;9.30;3.58;;;0.90;99.90;;;;;;5050401;28;20044;-83
2021/01/10 06:20:27;;;;;;;11.95;3.90;;;0.90;99.90;;;;;;5034408;28;20068;-83
2021/01/10 06:23:01;;;;;;;6.82;4.25;;;0.90;99.90;;;;;;5035490;28;20053;-83
2021/01/10 06:25:30;;;;;;;10.13;3.42;;;0.90;99.90;;;;;;5022312;28;20680;-83
2021/01/10 06:28:15;;;;;;;8.85;4.07;;;0.90;99.90;;;;;;5035419;28;20087;-84
2021/01/10 06:30:52;;;;;;;6.82;3.78;;;0.90;99.90;;;;;;5036872;28;20529;-83
2021/01/10 06:33:28;;;;;;;10.23;4.15;;;0.90;99.90;;;;;;5023506;28;20057;-84
2021/01/10 06:36:01;;;;;;;7.05;3.50;;;0.90;99.90;;;;;;5023123;28;20060;-84
2021/01/10 06:38:33;;;;;;;10.95;4.43;;;0.80;99.90;;;;;;5023077;28;20061;-83
2021/01/10 06:41:11;;;;;;;6.75;3.35;;;0.80;99.90;;;;;;5023150;28;20045;-83
2021/01/10 06:43:42;;;;;;;8.80;3.85;;;0.90;99.90;;;;;;5047258;28;20049;-83
2021/01/10 06:46:08;;;;;;;6.93;3.10;;;0.90;99.90;;;;;;5053405;28;20053;-84
2021/01/10 06:48:35;;;;;;;6.55;3.45;;;0.90;99.90;;;;;;5035798;28;20041;-84
2021/01/10 06:51:02;;;;;;;7.55;3.38;;;0.90;99.90;;;;;;5034180;28;20119;-84
2021/01/10 06:53:30;;;;;;;8.63;3.60;;;0.90;99.90;;;;;;5060287;28;20107;-84
2021/01/10 06:55:57;;;;;;;7.78;3.20;;;0.90;99.90;;;;;;5022804;28;20057;-83
2021/01/10 06:58:23;;;;;;;5.10;2.92;;;1.00;99.90;;;;;;5025910;28;20388;-83
2021/01/10 07:00:58;;;;;;;6.13;3.10;;;1.00;99.90;;;;;;5063655;28;20045;-84
2021/01/10 07:03:28;;;;;;;10.23;3.15;;;1.00;99.90;;;;;;5068521;28;20052;-83
2021/01/10 07:06:11;;;;;;;10.35;3.45;;;1.10;99.90;;;;;;5032142;28;20052;-84
2021/01/10 07:08:53;;;;;;;8.48;3.20;;;1.10;99.90;;;;;;5032738;28;20049;-83
2021/01/10 07:11:23;;;;;;;7.63;3.08;;;1.10;99.90;;;;;;5034144;28;20099;-84
2021/01/10 07:13:51;;;;;;;9.57;3.15;;;1.10;99.90;;;;;;5067083;28;20059;-83
2021/01/10 07:16:25;;;;;;;6.63;3.35;;;1.10;99.90;;;;;;5033686;28;20048;-83
2021/01/10 07:18:53;;;;;;;9.07;3.10;;;1.20;99.90;;;;;;5033651;28;20537;-84
2021/01/10 07:21:38;;;;;;;8.07;3.00;;;1.20;99.90;;;;;;5034535;28;20064;-84
2021/01/10 07:24:13;;;;;;;6.68;3.03;;;1.20;99.90;;;;;;5051862;28;20126;-83
2021/01/10 07:26:42;;;;;;;6.32;2.47;;;1.20;99.90;;;;;;5046861;28;20127;-83
2021/01/10 07:29:28;;;;;;;7.90;2.83;;;1.20;99.90;;;;;;5036523;28;20095;-84
2021/01/10 07:32:01;;;;;;;6.30;2.70;;;1.30;99.90;;;;;;5040574;28;20107;-83
2021/01/10 07:34:29;;;;;;;8.38;2.65;;;1.30;99.90;;;;;;5039726;28;20041;-83
2021/01/10 07:36:58;;;;;;;10.37;3.57;;;1.30;99.90;;;;;;5048864;28;20478;-83
2021/01/10 07:39:27;;;;;;;8.43;2.97;;;1.30;99.90;;;;;;5031259;28;20053;-83
2021/01/10 07:42:13;;;;;;;;;;;1.30;99.90;;;;;;5031514;28;20071;-84
2021/01/10 07:44:49;;;;;;;9.25;3.08;;;1.30;99.90;;;;;;5029336;28;19920;-83
2021/01/10 07:47:17;;;;;;;8.02;3.20;;;1.30;99.90;;;;;;5060948;28;20056;-83
2021/01/10 07:49:58;;;;;;;8.38;2.85;;;1.30;99.90;;;;;;5027693;28;20041;-84
2021/01/10 07:52:45;;;;;;;7.50;2.80;;;1.20;99.90;;;;;;5046276;28;20060;-83
2021/01/10 07:55:18;;;;;;;8.52;2.83;;;1.20;99.90;;;;;;5031261;28;20057;-84
2021/01/10 07:58:01;;;;;;;7.35;2.60;;;1.20;99.90;;;;;;5010286;28;20115;-83
2021/01/10 08:00:32;;;;;;;7.22;2.97;;;1.20;99.90;;;;;;5041400;28;20049;-84
2021/01/10 08:03:01;;;;;;;8.38;2.78;;;1.20;99.90;;;;;;5027650;28;20108;-84
2021/01/10 08:05:32;;;;;;;6.00;2.53;;;1.20;99.90;;;;;;5010250;28;20050;-84
2021/01/10 08:08:03;;;;;;;6.63;3.08;;;1.20;99.90;;;;;;5011012;28;20046;-83
2021/01/10 08:10:48;;;;;;;6.70;3.10;;;1.30;99.90;;;;;;5001323;28;20056;-84
2021/01/10 08:13:32;;;;;;;6.75;3.45;;;1.20;99.90;;;;;;5011205;28;20120;-84
2021/01/10 08:16:10;;;;;;;9.35;3.58;;;1.20;99.90;;;;;;5008947;28;20061;-83
2021/01/10 08:18:44;;;;;;;7.15;3.25;;;1.20;99.90;;;;;;5009158;28;20118;-84
2021/01/10 08:21:14;;;;;;;;;;;1.20;99.90;;;;;;5029107;28;20058;-83
2021/01/10 08:23:42;;;;;;;8.80;3.75;;;1.20;99.90;;;;;;5028567;28;20278;-84
2021/01/10 08:26:15;;;;;;;9.13;2.90;;;1.20;99.90;;;;;;5026447;28;20053;-84
2021/01/10 08:28:52;;;;;;;13.50;3.97;;;1.20;99.90;;;;;;5022125;28;20052;-84
2021/01/10 08:31:24;;;;;;;6.63;3.35;;;1.20;99.90;;;;;;5009921;28;20459;-84
2021/01/10 08:33:58;;;;;;;8.75;3.50;;;1.20;99.90;;;;;;5011070;28;20164;-83
2021/01/10 08:36:25;;;;;;;4.80;2.70;;;1.20;99.90;;;;;;5038875;28;20076;-84
2021/01/10 08:38:59;;;;;;;8.52;3.38;;;1.30;99.90;;;;;;5011279;28;20057;-84
2021/01/10 08:41:28;;;;;;;7.25;3.17;;;1.30;99.90;;;;;;5011647;28;20069;-84
2021/01/10 08:44:13;;;;;;;8.70;3.58;;;1.40;99.90;;;;;;5030134;28;20053;-84
2021/01/10 08:46:42;;;;;;;6.70;3.10;;;1.40;99.90;;;;;;5026205;28;20064;-83
2021/01/10 08:49:09;;;;;;;9.95;3.35;;;1.50;99.90;;;;;;5013633;28;20475;-84
2021/01/10 08:51:37;;;;;;;8.23;4.35;;;1.50;99.90;;;;;;5031287;28;20539;-84
2021/01/10 08:54:09;;;;;;;7.63;3.50;;;1.60;99.90;;;;;;5014161;28;20068;-83
2021/01/10 08:56:37;;;;;;;7.40;3.50;;;1.60;99.90;;;;;;5066737;28;20072;-84
2021/01/10 08:59:05;;;;;;;6.47;3.00;;;1.70;99.90;;;;;;5050313;28;20052;-83
2021/01/10 09:01:31;;;;;;;5.03;2.75;;;1.70;99.90;;;;;;5021048;28;20053;-84
2021/01/10 09:04:10;;;;;;;14.15;3.25;;;1.80;99.90;;;;;;5064250;28;20744;-83
2021/01/10 09:06:58;;;;;;;9.02;3.20;;;1.90;99.90;;;;;;5050729;28;20462;-84
2021/01/10 09:09:28;;;;;;;;;;;1.90;99.90;;;;;;5064894;28;20364;-83
2021/01/10 09:12:13;;;;;;;6.72;2.45;;;2.00;99.90;;;;;;5066670;28;19929;-83
2021/01/10 09:14:53;;;;;;;9.30;2.70;;;2.10;99.90;;;;;;5047441;28;20049;-84
2021/01/10 09:17:29;;;;;;;11.52;3.22;;;2.20;99.90;;;;;;5045825;28;20049;-84
2021/01/10 09:20:07;;;;;;;8.88;3.40;;;2.30;99.90;;;;;;5031189;28;20172;-84
2021/01/10 09:22:35;;;;;;;6.57;2.50;;;2.40;99.90;;;;;;5029324;28;20063;-84
2021/01/10 09:25:15;;;;;;;4.85;2.70;;;2.40;99.90;;;;;;5030358;28;20544;-84
2021/01/10 09:28:17;;;;;;;7.00;2.63;;;2.50;99.90;;;;;;5031862;28;20498;-84
2021/01/10 09:30:55;;;;;;;8.40;2.83;;;2.60;99.90;;;;;;5048006;28;20055;-83
2021/01/10 09:33:24;;;;;;;11.07;2.70;;;2.70;99.90;;;;;;5031528;28;20390;-83
2021/01/10 09:35:52;;;;;;;6.28;2.40;;;2.80;99.90;;;;;;5047023;28;20053;-84
2021/01/10 09:38:24;;;;;;;8.70;3.17;;;2.90;99.90;;;;;;5027807;28;20044;-85
2021/01/10 09:41:13;;;;;;;6.05;3.03;;;2.90;99.90;;;;;;5028538;28;20312;-84
2021/01/10 09:43:47;;;;;;;11.13;3.30;;;3.10;99.90;;;;;;5051060;28;20048;-85
2021/01/10 09:46:35;;;;;;;8.23;2.85;;;3.10;99.90;;;;;;5028892;28;20052;-86
2021/01/10 09:49:22;;;;;;;11.40;3.30;;;3.20;99.90;;;;;;5030727;28;20723;-83
2021/01/10 09:52:03;;;;;;;7.38;2.90;;;3.30;99.90;;;;;;5045080;28;20116;-84
2021/01/10 09:54:32;;;;;;;7.88;3.15;;;3.40;99.90;;;;;;5032108;28;20056;-84
2021/01/10 09:57:23;;;;;;;11.18;4.07;;;3.40;99.90;;;;;;5029335;28;20052;-84
2021/01/10 09:59:56;;;;;;;9.18;3.28;;;3.50;99.90;;;;;;5031278;28;20052;-84
2021/01/10 10:02:36;;;;;;;7.05;2.85;;;3.60;99.90;;;;;;5045105;28;20061;-85
2021/01/10 10:05:14;;;;;;;7.07;3.22;;;3.70;99.90;;;;;;5044552;28;20049;-84
2021/01/10 10:07:46;;;;;;;5.95;3.03;;;3.80;99.90;;;;;;5027181;28;20045;-83
2021/01/10 10:10:30;;;;;;;5.28;2.60;;;3.80;99.90;;;;;;5031757;28;20049;-84
2021/01/10 10:13:01;;;;;;;8.85;3.03;;;3.90;99.90;;;;;;5044367;28;20497;-84
2021/01/10 10:15:35;;;;;;;7.85;2.60;;;4.00;99.90;;;;;;5012700;28;20054;-84
2021/01/10 10:18:02;;;;;;;8.75;2.90;;;4.00;99.90;;;;;;5039848;28;20045;-85
2021/01/10 10:20:29;;;;;;;5.97;2.90;;;4.10;99.90;;;;;;5030256;28;20053;-83
2021/01/10 10:22:58;;;;;;;8.45;2.97;;;4.10;99.90;;;;;;5044137;28;20049;-84
2021/01/10 10:25:25;;;;;;;7.65;3.13;;;4.20;99.90;;;;;;5027516;28;20053;-83
2021/01/10 10:27:57;;;;;;;8.23;3.00;;;4.20;99.90;;;;;;5024460;28;20057;-84
2021/01/10 10:30:28;;;;;;;7.20;3.00;;;4.30;99.90;;;;;;5057145;28;20048;-84
2021/01/10 10:32:55;;;;;;;11.90;3.38;;;4.30;99.90;;;;;;5030539;28;20637;-84
2021/01/10 10:35:22;;;;;;;8.95;2.67;;;4.40;99.90;;;;;;5051154;28;20052;-84
2021/01/10 10:37:50;;;;;;;9.25;2.90;;;4.40;99.90;;;;;;5035230;28;20048;-84
2021/01/10 10:40:18;;;;;;;6.65;3.13;;;4.50;99.90;;;;;;5033022;28;20304;-84
2021/01/10 10:42:44;;;;;;;10.35;3.35;;;4.50;99.90;;;;;;5059032;28;20180;-84
2021/01/10 10:45:11;;;;;;;8.15;3.67;;;4.60;99.90;;;;;;5068375;28;20102;-84
2021/01/10 10:47:38;;;;;;;8.93;3.15;;;4.60;99.90;;;;;;5035584;28;20045;-85
2021/01/10 10:50:06;;;;;;;5.43;3.15;;;4.70;99.90;;;;;;5053844;28;20060;-82
2021/01/10 10:52:32;;;;;;;10.45;3.15;;;4.70;99.90;;;;;;5033104;28;20107;-83
2021/01/10 10:54:59;;;;;;;7.38;2.92;;;4.70;99.90;;;;;;5038117;28;20065;-83
2021/01/10 10:57:27;;;;;;;5.88;2.60;;;4.80;99.90;;;;;;5043689;28;20425;-85
2021/01/10 10:59:54;;;;;;;6.82;3.38;;;4.80;99.90;;;;;;5037811;28;20119;-83
2021/01/10 11:02:20;;;;;;;4.40;2.47;;;4.90;99.90;;;;;;5037682;28;20517;-83
2021/01/10 11:04:47;;;;;;;6.40;2.60;;;4.90;99.90;;;;;;5058050;28;20135;-83
2021/01/10 11:07:14;;;;;;;8.05;2.70;;;5.00;99.90;;;;;;5056336;28;20663;-83
2021/01/10 11:09:41;;;;;;;8.85;3.67;;;5.00;99.90;;;;;;5053324;28;20044;-84
2021/01/10 11:12:12;;;;;;;12.20;4.82;;;5.00;99.90;;;;;;5039045;28;20134;-84
2021/01/10 11:14:39;;;;;;;10.68;5.22;;;5.10;99.90;;;;;;5034302;28;20087;-83
2021/01/10 11:17:10;;;;;;;18.25;9.90;;;5.10;99.90;;;;;;5058058;28;20130;-83
2021/01/10 11:19:37;;;;;;;12.05;4.85;;;5.10;99.90;;;;;;5038234;28;20576;-82
2021/01/10 11:22:05;;;;;;;12.13;5.22;;;5.10;99.90;;;;;;5051232;28;20041;-81
2021/01/10 11:24:33;;;;;;;8.20;3.25;;;5.00;99.90;;;;;;5057431;28;20062;-81
2021/01/10 11:27:00;;;;;;;7.57;3.28;;;5.00;99.90;;;;;;5037033;28;20105;-82
2021/01/10 11:29:27;;;;;;;11.50;3.30;;;5.00;99.90;;;;;;5035045;28;20487;-82
2021/01/10 11:31:54;;;;;;;7.70;3.15;;;5.00;99.90;;;;;;5058325;28;20122;-82
2021/01/10 11:34:22;;;;;;;8.77;2.92;;;5.00;99.90;;;;;;5034889;28;20479;-82
2021/01/10 11:36:54;;;;;;;8.02;3.63;;;5.00;99.90;;;;;;5038774;28;20053;-82
2021/01/10 11:39:22;;;;;;;7.43;3.03;;;5.00;99.90;;;;;;5059065;28;20044;-82
2021/01/10 11:41:51;;;;;;;6.10;2.92;;;5.00;99.90;;;;;;5039604;28;20487;-83
2021/01/10 11:44:18;;;;;;;8.45;3.63;;;5.00;99.90;;;;;;5036165;28;20083;-82
2021/01/10 11:46:47;;;;;;;8.13;3.28;;;5.10;99.90;;;;;;5056529;28;20056;-82
2021/01/10 11:49:14;;;;;;;5.55;3.22;;;5.20;99.90;;;;;;5037396;28;20061;-82
2021/01/10 11:51:41;;;;;;;7.97;3.63;;;5.20;99.90;;;;;;5040355;28;20469;-83
2021/01/10 11:54:08;;;;;;;8.93;3.55;;;5.30;99.90;;;;;;5032785;28;20064;-82
2021/01/10 11:56:35;;;;;;;7.05;3.28;;;5.40;99.90;;;;;;5065541;28;20045;-85
2021/01/10 11:59:02;;;;;;;7.82;3.47;;;5.40;99.90;;;;;;5043724;28;20061;-84
2021/01/10 12:01:33;;;;;;;8.10;4.20;;;5.50;99.90;;;;;;5029385;28;20079;-84
2021/01/10 12:04:01;;;;;;;7.10;3.20;;;5.50;99.90;;;;;;5025515;28;25713;-83
2021/01/10 12:06:27;;;;;;;7.07;2.88;;;5.50;99.90;;;;;;5029412;28;20063;-82
2021/01/10 12:08:55;;;;;;;9.35;3.55;;;5.60;99.90;;;;;;5041670;28;20053;-84
2021/01/10 12:11:21;;;;;;;8.73;2.83;;;5.60;99.90;;;;;;5028435;28;20593;-84
2021/01/10 12:13:48;;;;;;;7.63;2.65;;;5.70;99.90;;;;;;5035899;28;20430;-84
2021/01/10 12:16:15;;;;;;;4.55;2.53;;;5.70;99.90;;;;;;5032603;28;20122;-85
2021/01/10 12:18:43;;;;;;;5.32;2.28;;;5.80;99.90;;;;;;5032419;28;20485;-83
2021/01/10 12:21:14;;;;;;;5.65;2.63;;;5.80;99.90;;;;;;5043878;28;20064;-84
2021/01/10 12:23:41;;;;;;;7.65;2.40;;;5.90;99.90;;;;;;5044523;28;20041;-85
2021/01/10 12:26:12;;;;;;;6.88;2.80;;;5.90;99.90;;;;;;5028574;28;20053;-85
2021/01/10 12:28:40;;;;;;;3.47;2.35;;;5.90;99.90;;;;;;5024996;28;20077;-85
2021/01/10 12:31:07;;;;;;;4.65;2.83;;;5.90;99.90;;;;;;5060510;28;20115;-86
2021/01/10 12:33:37;;;;;;;8.73;3.20;;;5.90;99.90;;;;;;5061670;28;20052;-84
2021/01/10 12:36:07;;;;;;;11.20;9.10;;;6.00;99.90;;;;;;5041193;28;20523;-84
2021/01/10 12:38:34;;;;;;;10.38;7.05;;;6.00;99.90;;;;;;5025196;28;20399;-85
2021/01/10 12:41:00;;;;;;;4.75;3.13;;;6.00;99.90;;;;;;5030172;28;20057;-84
2021/01/10 12:43:27;;;;;;;5.80;3.35;;;6.00;99.90;;;;;;5061054;28;20069;-86
2021/01/10 12:45:54;;;;;;;9.25;2.97;;;6.00;99.90;;;;;;5029816;28;20045;-84
2021/01/10 12:48:20;;;;;;;5.95;3.30;;;6.10;99.90;;;;;;5034116;28;20052;-84
2021/01/10 12:50:47;;;;;;;9.38;3.30;;;6.10;99.90;;;;;;5038858;28;20044;-83
2021/01/10 12:53:16;;;;;;;5.13;3.47;;;6.10;99.90;;;;;;5040952;28;20045;-85
2021/01/10 12:55:42;;;;;;;12.82;7.07;;;6.20;99.90;;;;;;5042575;28;20053;-84
2021/01/10 12:58:09;;;;;;;23.27;11.18;;;6.20;99.90;;;;;;5053539;28;20489;-83
2021/01/10 13:00:35;;;;;;;6.03;3.60;;;6.30;99.90;;;;;;5054195;28;20049;-88
2021/01/10 13:03:03;;;;;;;8.18;4.28;;;6.30;99.90;;;;;;5067442;28;20095;-88
2021/01/10 13:05:30;;;;;;;4.43;3.40;;;6.40;99.90;;;;;;5031860;28;20057;-85
2021/01/10 13:07:57;;;;;;;10.40;3.90;;;6.40;99.90;;;;;;5047993;28;20053;-85
2021/01/10 13:10:23;;;;;;;7.65;3.90;;;6.50;99.90;;;;;;5033612;28;20048;-85
2021/01/10 13:12:50;;;;;;;5.45;3.75;;;6.50;99.90;;;;;;5030120;28;20045;-85